sensor_id;sensor_type;location;lat;lon;timestamp;P1;durP1;ratioP1;P2;durP2;ratioP2
37477;SDS011;23334;54.316;10.182;2023-03-23T00:00:05;16.50;;;10.93;;
37477;SDS011;23334;54.316;10.182;2023-03-23T00:02:33;15.43;;;10.10;;
37477;SDS011;23334;54.316;10.182;2023-03-23T00:05:00;17.90;;;11.70;;
37477;SDS011;23334;54.316;10.182;2023-03-23T00:07:28;19.27;;;12.10;;
37477;SDS011;23334;54.316;10.182;2023-03-23T00:09:54;18.07;;;11.77;;
37477;SDS011;23334;54.316;10.182;2023-03-23T00:12:24;16.10;;;12.40;;
37477;SDS011;23334;54.316;10.182;2023-03-23T00:14:58;21.80;;;12.00;;
37477;SDS011;23334;54.316;10.182;2023-03-23T00:17:28;20.03;;;12.40;;
37477;SDS011;23334;54.316;10.182;2023-03-23T00:19:55;17.93;;;12.37;;
37477;SDS011;23334;54.316;10.182;2023-03-23T00:22:20;17.77;;;12.17;;
37477;SDS011;23334;54.316;10.182;2023-03-23T00:24:47;23.67;;;11.67;;
37477;SDS011;23334;54.316;10.182;2023-03-23T00:27:15;23.00;;;12.90;;
37477;SDS011;23334;54.316;10.182;2023-03-23T00:29:41;19.07;;;12.10;;
37477;SDS011;23334;54.316;10.182;2023-03-23T00:32:07;24.90;;;13.23;;
37477;SDS011;23334;54.316;10.182;2023-03-23T00:34:37;17.67;;;11.77;;
37477;SDS011;23334;54.316;10.182;2023-03-23T00:37:03;23.20;;;12.43;;
37477;SDS011;23334;54.316;10.182;2023-03-23T00:39:29;20.63;;;13.30;;
37477;SDS011;23334;54.316;10.182;2023-03-23T00:41:54;17.47;;;11.80;;
37477;SDS011;23334;54.316;10.182;2023-03-23T00:44:27;18.23;;;12.60;;
37477;SDS011;23334;54.316;10.182;2023-03-23T00:46:53;21.33;;;13.07;;
37477;SDS011;23334;54.316;10.182;2023-03-23T00:49:21;20.67;;;13.07;;
37477;SDS011;23334;54.316;10.182;2023-03-23T00:51:50;19.87;;;12.37;;
37477;SDS011;23334;54.316;10.182;2023-03-23T00:54:17;19.97;;;11.87;;
37477;SDS011;23334;54.316;10.182;2023-03-23T00:56:43;17.77;;;10.90;;
37477;SDS011;23334;54.316;10.182;2023-03-23T00:59:08;19.77;;;11.80;;
37477;SDS011;23334;54.316;10.182;2023-03-23T01:01:34;18.50;;;12.90;;
37477;SDS011;23334;54.316;10.182;2023-03-23T01:04:00;18.27;;;11.87;;
37477;SDS011;23334;54.316;10.182;2023-03-23T01:06:28;16.70;;;11.77;;
37477;SDS011;23334;54.316;10.182;2023-03-23T01:08:56;18.60;;;11.67;;
37477;SDS011;23334;54.316;10.182;2023-03-23T01:11:25;14.73;;;9.90;;
37477;SDS011;23334;54.316;10.182;2023-03-23T01:13:51;15.50;;;10.30;;
37477;SDS011;23334;54.316;10.182;2023-03-23T01:16:17;16.27;;;10.93;;
37477;SDS011;23334;54.316;10.182;2023-03-23T01:18:43;16.17;;;10.80;;
37477;SDS011;23334;54.316;10.182;2023-03-23T01:21:12;20.33;;;10.40;;
37477;SDS011;23334;54.316;10.182;2023-03-23T01:23:40;17.93;;;11.40;;
37477;SDS011;23334;54.316;10.182;2023-03-23T01:26:10;15.13;;;10.80;;
37477;SDS011;23334;54.316;10.182;2023-03-23T01:28:43;16.80;;;10.50;;
37477;SDS011;23334;54.316;10.182;2023-03-23T01:31:11;26.70;;;10.57;;
37477;SDS011;23334;54.316;10.182;2023-03-23T01:33:39;15.67;;;10.70;;
37477;SDS011;23334;54.316;10.182;2023-03-23T01:36:07;15.60;;;9.87;;
37477;SDS011;23334;54.316;10.182;2023-03-23T01:38:35;13.43;;;9.30;;
37477;SDS011;23334;54.316;10.182;2023-03-23T01:41:01;10.10;;;6.50;;
37477;SDS011;23334;54.316;10.182;2023-03-23T01:43:27;17.23;;;8.00;;
37477;SDS011;23334;54.316;10.182;2023-03-23T01:45:53;9.23;;;7.03;;
37477;SDS011;23334;54.316;10.182;2023-03-23T01:48:23;11.17;;;7.10;;
37477;SDS011;23334;54.316;10.182;2023-03-23T01:53:31;8.53;;;5.77;;
37477;SDS011;23334;54.316;10.182;2023-03-23T01:56:06;5.33;;;4.83;;
37477;SDS011;23334;54.316;10.182;2023-03-23T01:58:33;9.77;;;6.07;;
37477;SDS011;23334;54.316;10.182;2023-03-23T02:01:02;8.23;;;6.17;;
37477;SDS011;23334;54.316;10.182;2023-03-23T02:03:30;7.40;;;5.03;;
37477;SDS011;23334;54.316;10.182;2023-03-23T02:05:57;8.17;;;5.53;;
37477;SDS011;23334;54.316;10.182;2023-03-23T02:08:27;8.53;;;5.97;;
37477;SDS011;23334;54.316;10.182;2023-03-23T02:10:57;6.23;;;4.80;;
37477;SDS011;23334;54.316;10.182;2023-03-23T02:13:23;7.90;;;5.27;;
37477;SDS011;23334;54.316;10.182;2023-03-23T02:18:26;7.63;;;6.00;;
37477;SDS011;23334;54.316;10.182;2023-03-23T02:27:16;9.97;;;7.10;;
37477;SDS011;23334;54.316;10.182;2023-03-23T02:30:11;10.23;;;7.27;;
37477;SDS011;23334;54.316;10.182;2023-03-23T02:35:41;11.00;;;7.07;;
37477;SDS011;23334;54.316;10.182;2023-03-23T02:38:16;14.10;;;8.00;;
37477;SDS011;23334;54.316;10.182;2023-03-23T02:40:46;12.00;;;8.50;;
37477;SDS011;23334;54.316;10.182;2023-03-23T02:43:15;13.10;;;8.00;;
37477;SDS011;23334;54.316;10.182;2023-03-23T02:45:45;10.90;;;8.37;;
37477;SDS011;23334;54.316;10.182;2023-03-23T02:48:12;13.33;;;9.17;;
37477;SDS011;23334;54.316;10.182;2023-03-23T02:50:41;12.27;;;7.97;;
37477;SDS011;23334;54.316;10.182;2023-03-23T02:53:10;13.13;;;8.23;;
37477;SDS011;23334;54.316;10.182;2023-03-23T02:55:41;12.43;;;7.70;;
37477;SDS011;23334;54.316;10.182;2023-03-23T02:58:09;12.30;;;8.23;;
37477;SDS011;23334;54.316;10.182;2023-03-23T03:00:36;10.60;;;7.17;;
37477;SDS011;23334;54.316;10.182;2023-03-23T03:03:02;17.77;;;8.13;;
37477;SDS011;23334;54.316;10.182;2023-03-23T03:05:40;12.40;;;7.80;;
37477;SDS011;23334;54.316;10.182;2023-03-23T03:08:26;9.90;;;6.77;;
37477;SDS011;23334;54.316;10.182;2023-03-23T03:11:07;9.67;;;7.03;;
37477;SDS011;23334;54.316;10.182;2023-03-23T03:13:36;9.63;;;6.87;;
37477;SDS011;23334;54.316;10.182;2023-03-23T03:16:07;9.33;;;6.20;;
37477;SDS011;23334;54.316;10.182;2023-03-23T03:19:09;9.20;;;5.90;;
37477;SDS011;23334;54.316;10.182;2023-03-23T03:21:43;9.07;;;5.60;;
37477;SDS011;23334;54.316;10.182;2023-03-23T03:24:12;6.43;;;4.90;;
37477;SDS011;23334;54.316;10.182;2023-03-23T03:26:40;8.10;;;5.10;;
37477;SDS011;23334;54.316;10.182;2023-03-23T03:29:22;6.60;;;4.87;;
37477;SDS011;23334;54.316;10.182;2023-03-23T03:31:51;5.03;;;4.53;;
37477;SDS011;23334;54.316;10.182;2023-03-23T03:34:20;6.17;;;4.13;;
37477;SDS011;23334;54.316;10.182;2023-03-23T03:36:48;5.90;;;4.50;;
37477;SDS011;23334;54.316;10.182;2023-03-23T03:39:16;5.90;;;5.00;;
37477;SDS011;23334;54.316;10.182;2023-03-23T03:41:44;7.40;;;5.37;;
37477;SDS011;23334;54.316;10.182;2023-03-23T03:44:10;6.90;;;4.57;;
37477;SDS011;23334;54.316;10.182;2023-03-23T03:46:36;7.77;;;4.87;;
37477;SDS011;23334;54.316;10.182;2023-03-23T03:49:03;6.80;;;4.87;;
37477;SDS011;23334;54.316;10.182;2023-03-23T03:51:31;5.60;;;4.40;;
37477;SDS011;23334;54.316;10.182;2023-03-23T03:53:57;5.00;;;3.10;;
37477;SDS011;23334;54.316;10.182;2023-03-23T03:56:24;4.33;;;3.43;;
37477;SDS011;23334;54.316;10.182;2023-03-23T03:58:51;3.60;;;3.30;;
37477;SDS011;23334;54.316;10.182;2023-03-23T04:01:18;6.20;;;3.70;;
37477;SDS011;23334;54.316;10.182;2023-03-23T04:03:46;4.00;;;3.60;;
37477;SDS011;23334;54.316;10.182;2023-03-23T04:06:12;4.67;;;3.90;;
37477;SDS011;23334;54.316;10.182;2023-03-23T04:08:39;3.63;;;3.33;;
37477;SDS011;23334;54.316;10.182;2023-03-23T04:11:06;20.67;;;5.73;;
37477;SDS011;23334;54.316;10.182;2023-03-23T04:13:32;3.30;;;2.83;;
37477;SDS011;23334;54.316;10.182;2023-03-23T04:15:58;4.43;;;3.43;;
37477;SDS011;23334;54.316;10.182;2023-03-23T04:18:23;3.63;;;3.20;;
37477;SDS011;23334;54.316;10.182;2023-03-23T04:20:50;3.03;;;2.77;;
37477;SDS011;23334;54.316;10.182;2023-03-23T04:23:16;3.20;;;2.10;;
37477;SDS011;23334;54.316;10.182;2023-03-23T04:25:46;4.17;;;3.87;;
37477;SDS011;23334;54.316;10.182;2023-03-23T04:28:13;1.93;;;1.83;;
37477;SDS011;23334;54.316;10.182;2023-03-23T04:30:41;2.00;;;1.90;;
37477;SDS011;23334;54.316;10.182;2023-03-23T04:33:08;1.40;;;1.30;;
37477;SDS011;23334;54.316;10.182;2023-03-23T04:35:39;1.37;;;1.27;;
37477;SDS011;23334;54.316;10.182;2023-03-23T04:38:06;3.37;;;1.50;;
37477;SDS011;23334;54.316;10.182;2023-03-23T04:40:32;1.50;;;1.40;;
37477;SDS011;23334;54.316;10.182;2023-03-23T04:43:01;3.13;;;1.30;;
37477;SDS011;23334;54.316;10.182;2023-03-23T04:45:30;2.93;;;1.20;;
37477;SDS011;23334;54.316;10.182;2023-03-23T04:47:57;5.00;;;1.20;;
37477;SDS011;23334;54.316;10.182;2023-03-23T04:50:23;1.43;;;0.93;;
37477;SDS011;23334;54.316;10.182;2023-03-23T04:52:52;1.33;;;0.60;;
37477;SDS011;23334;54.316;10.182;2023-03-23T04:55:21;0.80;;;0.80;;
37477;SDS011;23334;54.316;10.182;2023-03-23T04:57:48;1.27;;;1.10;;
37477;SDS011;23334;54.316;10.182;2023-03-23T05:00:13;0.80;;;0.77;;
37477;SDS011;23334;54.316;10.182;2023-03-23T05:02:41;2.63;;;0.80;;
37477;SDS011;23334;54.316;10.182;2023-03-23T05:05:12;2.20;;;0.97;;
37477;SDS011;23334;54.316;10.182;2023-03-23T05:07:38;0.80;;;0.80;;
37477;SDS011;23334;54.316;10.182;2023-03-23T05:10:05;1.57;;;0.80;;
37477;SDS011;23334;54.316;10.182;2023-03-23T05:12:32;1.10;;;0.97;;
37477;SDS011;23334;54.316;10.182;2023-03-23T05:14:58;0.80;;;0.80;;
37477;SDS011;23334;54.316;10.182;2023-03-23T05:17:24;1.23;;;1.13;;
37477;SDS011;23334;54.316;10.182;2023-03-23T05:19:50;1.30;;;1.20;;
37477;SDS011;23334;54.316;10.182;2023-03-23T05:22:16;1.57;;;1.07;;
37477;SDS011;23334;54.316;10.182;2023-03-23T05:24:42;5.47;;;1.40;;
37477;SDS011;23334;54.316;10.182;2023-03-23T05:27:11;1.70;;;1.60;;
37477;SDS011;23334;54.316;10.182;2023-03-23T05:29:37;1.87;;;1.70;;
37477;SDS011;23334;54.316;10.182;2023-03-23T05:32:05;2.07;;;1.90;;
37477;SDS011;23334;54.316;10.182;2023-03-23T05:34:32;4.80;;;2.73;;
37477;SDS011;23334;54.316;10.182;2023-03-23T05:36:59;7.27;;;3.53;;
37477;SDS011;23334;54.316;10.182;2023-03-23T05:39:25;5.07;;;4.07;;
37477;SDS011;23334;54.316;10.182;2023-03-23T05:41:51;7.30;;;4.97;;
37477;SDS011;23334;54.316;10.182;2023-03-23T05:44:17;6.33;;;5.30;;
37477;SDS011;23334;54.316;10.182;2023-03-23T05:46:43;13.17;;;7.40;;
37477;SDS011;23334;54.316;10.182;2023-03-23T05:49:09;10.67;;;6.00;;
37477;SDS011;23334;54.316;10.182;2023-03-23T05:51:35;8.17;;;6.30;;
37477;SDS011;23334;54.316;10.182;2023-03-23T05:54:01;13.67;;;8.10;;
37477;SDS011;23334;54.316;10.182;2023-03-23T05:56:28;13.17;;;9.33;;
37477;SDS011;23334;54.316;10.182;2023-03-23T05:58:55;19.70;;;9.70;;
37477;SDS011;23334;54.316;10.182;2023-03-23T06:01:21;17.27;;;10.20;;
37477;SDS011;23334;54.316;10.182;2023-03-23T06:03:46;16.43;;;10.83;;
37477;SDS011;23334;54.316;10.182;2023-03-23T06:06:15;16.53;;;11.10;;
37477;SDS011;23334;54.316;10.182;2023-03-23T06:08:41;23.23;;;13.80;;
37477;SDS011;23334;54.316;10.182;2023-03-23T06:11:07;20.53;;;13.20;;
37477;SDS011;23334;54.316;10.182;2023-03-23T06:13:33;29.33;;;14.90;;
37477;SDS011;23334;54.316;10.182;2023-03-23T06:15:58;20.93;;;15.17;;
37477;SDS011;23334;54.316;10.182;2023-03-23T06:18:24;21.23;;;14.17;;
37477;SDS011;23334;54.316;10.182;2023-03-23T06:20:51;23.87;;;15.47;;
37477;SDS011;23334;54.316;10.182;2023-03-23T06:23:17;20.47;;;14.53;;
37477;SDS011;23334;54.316;10.182;2023-03-23T06:25:43;17.87;;;13.57;;
37477;SDS011;23334;54.316;10.182;2023-03-23T06:28:09;20.67;;;12.87;;
37477;SDS011;23334;54.316;10.182;2023-03-23T06:30:36;17.07;;;12.43;;
37477;SDS011;23334;54.316;10.182;2023-03-23T06:33:02;18.43;;;12.23;;
37477;SDS011;23334;54.316;10.182;2023-03-23T06:35:30;18.27;;;12.83;;
37477;SDS011;23334;54.316;10.182;2023-03-23T06:37:56;20.20;;;13.50;;
37477;SDS011;23334;54.316;10.182;2023-03-23T06:40:26;18.57;;;11.53;;
37477;SDS011;23334;54.316;10.182;2023-03-23T06:42:52;18.47;;;12.60;;
37477;SDS011;23334;54.316;10.182;2023-03-23T06:45:18;19.97;;;12.33;;
37477;SDS011;23334;54.316;10.182;2023-03-23T06:47:45;17.70;;;11.63;;
37477;SDS011;23334;54.316;10.182;2023-03-23T06:50:13;16.97;;;12.07;;
37477;SDS011;23334;54.316;10.182;2023-03-23T06:52:40;15.27;;;11.70;;
37477;SDS011;23334;54.316;10.182;2023-03-23T06:55:07;16.00;;;11.50;;
37477;SDS011;23334;54.316;10.182;2023-03-23T06:57:33;15.93;;;11.40;;
37477;SDS011;23334;54.316;10.182;2023-03-23T06:59:58;15.17;;;11.00;;
37477;SDS011;23334;54.316;10.182;2023-03-23T07:02:24;18.70;;;9.60;;
37477;SDS011;23334;54.316;10.182;2023-03-23T07:04:50;12.77;;;10.20;;
37477;SDS011;23334;54.316;10.182;2023-03-23T07:07:19;14.90;;;10.47;;
37477;SDS011;23334;54.316;10.182;2023-03-23T07:09:45;12.57;;;9.43;;
37477;SDS011;23334;54.316;10.182;2023-03-23T07:12:12;12.47;;;8.40;;
37477;SDS011;23334;54.316;10.182;2023-03-23T07:14:37;13.10;;;7.83;;
37477;SDS011;23334;54.316;10.182;2023-03-23T07:17:03;12.73;;;9.90;;
37477;SDS011;23334;54.316;10.182;2023-03-23T07:19:29;11.00;;;7.27;;
37477;SDS011;23334;54.316;10.182;2023-03-23T07:21:54;11.63;;;7.93;;
37477;SDS011;23334;54.316;10.182;2023-03-23T07:24:21;14.03;;;8.07;;
37477;SDS011;23334;54.316;10.182;2023-03-23T07:26:47;13.23;;;9.37;;
37477;SDS011;23334;54.316;10.182;2023-03-23T07:29:12;11.77;;;9.20;;
37477;SDS011;23334;54.316;10.182;2023-03-23T07:31:38;12.93;;;8.20;;
37477;SDS011;23334;54.316;10.182;2023-03-23T07:34:05;13.27;;;8.57;;
37477;SDS011;23334;54.316;10.182;2023-03-23T07:36:31;11.53;;;9.00;;
37477;SDS011;23334;54.316;10.182;2023-03-23T07:38:57;13.77;;;9.00;;
37477;SDS011;23334;54.316;10.182;2023-03-23T07:41:23;11.00;;;8.60;;
37477;SDS011;23334;54.316;10.182;2023-03-23T07:43:49;19.40;;;9.17;;
37477;SDS011;23334;54.316;10.182;2023-03-23T07:46:15;10.60;;;8.30;;
37477;SDS011;23334;54.316;10.182;2023-03-23T07:48:41;8.20;;;7.23;;
37477;SDS011;23334;54.316;10.182;2023-03-23T07:51:06;8.00;;;6.53;;
37477;SDS011;23334;54.316;10.182;2023-03-23T07:53:32;7.53;;;6.73;;
37477;SDS011;23334;54.316;10.182;2023-03-23T07:55:58;8.13;;;6.20;;
37477;SDS011;23334;54.316;10.182;2023-03-23T07:58:23;9.57;;;5.93;;
37477;SDS011;23334;54.316;10.182;2023-03-23T08:00:50;5.00;;;4.37;;
37477;SDS011;23334;54.316;10.182;2023-03-23T08:03:17;6.10;;;4.23;;
37477;SDS011;23334;54.316;10.182;2023-03-23T08:05:43;5.37;;;3.97;;
37477;SDS011;23334;54.316;10.182;2023-03-23T08:08:08;4.40;;;4.00;;
37477;SDS011;23334;54.316;10.182;2023-03-23T08:10:34;3.40;;;2.57;;
37477;SDS011;23334;54.316;10.182;2023-03-23T08:13:00;4.07;;;3.57;;
37477;SDS011;23334;54.316;10.182;2023-03-23T08:15:28;3.13;;;2.93;;
37477;SDS011;23334;54.316;10.182;2023-03-23T08:17:54;3.80;;;3.10;;
37477;SDS011;23334;54.316;10.182;2023-03-23T08:20:20;6.10;;;2.93;;
37477;SDS011;23334;54.316;10.182;2023-03-23T08:22:51;3.43;;;2.27;;
37477;SDS011;23334;54.316;10.182;2023-03-23T08:25:19;3.93;;;2.63;;
37477;SDS011;23334;54.316;10.182;2023-03-23T08:27:44;4.83;;;1.60;;
37477;SDS011;23334;54.316;10.182;2023-03-23T08:30:14;3.80;;;1.80;;
37477;SDS011;23334;54.316;10.182;2023-03-23T08:32:42;4.90;;;1.40;;
37477;SDS011;23334;54.316;10.182;2023-03-23T08:35:08;5.10;;;1.80;;
37477;SDS011;23334;54.316;10.182;2023-03-23T08:37:35;7.40;;;2.00;;
37477;SDS011;23334;54.316;10.182;2023-03-23T08:40:02;2.50;;;1.47;;
37477;SDS011;23334;54.316;10.182;2023-03-23T08:42:33;5.53;;;1.93;;
37477;SDS011;23334;54.316;10.182;2023-03-23T08:44:59;4.07;;;1.60;;
37477;SDS011;23334;54.316;10.182;2023-03-23T08:47:25;7.30;;;2.10;;
37477;SDS011;23334;54.316;10.182;2023-03-23T08:49:51;7.00;;;1.23;;
37477;SDS011;23334;54.316;10.182;2023-03-23T08:52:19;6.03;;;1.43;;
37477;SDS011;23334;54.316;10.182;2023-03-23T08:54:45;5.77;;;1.80;;
37477;SDS011;23334;54.316;10.182;2023-03-23T08:57:12;7.93;;;2.17;;
37477;SDS011;23334;54.316;10.182;2023-03-23T08:59:39;6.77;;;2.10;;
37477;SDS011;23334;54.316;10.182;2023-03-23T09:02:06;3.57;;;1.33;;
37477;SDS011;23334;54.316;10.182;2023-03-23T09:04:33;8.50;;;1.77;;
37477;SDS011;23334;54.316;10.182;2023-03-23T09:06:59;3.00;;;1.27;;
37477;SDS011;23334;54.316;10.182;2023-03-23T09:09:25;5.77;;;1.80;;
37477;SDS011;23334;54.316;10.182;2023-03-23T09:11:50;6.27;;;1.80;;
37477;SDS011;23334;54.316;10.182;2023-03-23T09:14:18;5.30;;;1.40;;
37477;SDS011;23334;54.316;10.182;2023-03-23T09:16:44;6.90;;;2.00;;
37477;SDS011;23334;54.316;10.182;2023-03-23T09:19:10;5.53;;;1.40;;
37477;SDS011;23334;54.316;10.182;2023-03-23T09:21:36;5.17;;;1.47;;
37477;SDS011;23334;54.316;10.182;2023-03-23T09:24:01;3.73;;;1.70;;
37477;SDS011;23334;54.316;10.182;2023-03-23T09:26:27;3.47;;;1.67;;
37477;SDS011;23334;54.316;10.182;2023-03-23T09:28:53;6.13;;;1.60;;
37477;SDS011;23334;54.316;10.182;2023-03-23T09:31:21;4.80;;;1.30;;
37477;SDS011;23334;54.316;10.182;2023-03-23T09:33:47;3.97;;;1.20;;
37477;SDS011;23334;54.316;10.182;2023-03-23T09:36:17;3.07;;;1.60;;
37477;SDS011;23334;54.316;10.182;2023-03-23T09:38:43;6.23;;;2.60;;
37477;SDS011;23334;54.316;10.182;2023-03-23T09:44:19;4.67;;;1.60;;
37477;SDS011;23334;54.316;10.182;2023-03-23T09:49:52;6.43;;;1.57;;
37477;SDS011;23334;54.316;10.182;2023-03-23T09:52:21;2.97;;;1.40;;
37477;SDS011;23334;54.316;10.182;2023-03-23T09:54:51;6.17;;;2.03;;
37477;SDS011;23334;54.316;10.182;2023-03-23T09:57:25;8.00;;;1.87;;
37477;SDS011;23334;54.316;10.182;2023-03-23T10:02:46;5.63;;;1.60;;
37477;SDS011;23334;54.316;10.182;2023-03-23T10:05:33;7.37;;;1.80;;
37477;SDS011;23334;54.316;10.182;2023-03-23T10:08:17;7.27;;;2.37;;
37477;SDS011;23334;54.316;10.182;2023-03-23T10:13:41;6.10;;;2.00;;
37477;SDS011;23334;54.316;10.182;2023-03-23T10:16:15;13.60;;;2.20;;
37477;SDS011;23334;54.316;10.182;2023-03-23T10:21:20;6.73;;;1.97;;
37477;SDS011;23334;54.316;10.182;2023-03-23T10:26:20;4.60;;;1.20;;
37477;SDS011;23334;54.316;10.182;2023-03-23T10:28:48;10.73;;;1.83;;
37477;SDS011;23334;54.316;10.182;2023-03-23T10:31:27;4.77;;;1.60;;
37477;SDS011;23334;54.316;10.182;2023-03-23T10:33:57;4.33;;;1.80;;
37477;SDS011;23334;54.316;10.182;2023-03-23T10:41:39;7.50;;;1.93;;
37477;SDS011;23334;54.316;10.182;2023-03-23T10:44:16;11.73;;;2.37;;
37477;SDS011;23334;54.316;10.182;2023-03-23T10:46:46;10.57;;;2.03;;
37477;SDS011;23334;54.316;10.182;2023-03-23T10:49:17;11.30;;;1.90;;
37477;SDS011;23334;54.316;10.182;2023-03-23T10:51:56;7.00;;;1.60;;
37477;SDS011;23334;54.316;10.182;2023-03-23T10:54:35;7.57;;;2.07;;
37477;SDS011;23334;54.316;10.182;2023-03-23T10:57:27;9.80;;;2.20;;
37477;SDS011;23334;54.316;10.182;2023-03-23T11:02:31;4.30;;;1.30;;
37477;SDS011;23334;54.316;10.182;2023-03-23T11:05:01;6.03;;;1.93;;
37477;SDS011;23334;54.316;10.182;2023-03-23T11:07:30;8.23;;;1.77;;
37477;SDS011;23334;54.316;10.182;2023-03-23T11:10:03;9.50;;;1.97;;
37477;SDS011;23334;54.316;10.182;2023-03-23T11:12:43;5.10;;;1.80;;
37477;SDS011;23334;54.316;10.182;2023-03-23T11:15:32;7.60;;;1.60;;
37477;SDS011;23334;54.316;10.182;2023-03-23T11:17:59;4.30;;;1.30;;
37477;SDS011;23334;54.316;10.182;2023-03-23T11:20:32;6.17;;;1.77;;
37477;SDS011;23334;54.316;10.182;2023-03-23T11:23:35;5.80;;;1.70;;
37477;SDS011;23334;54.316;10.182;2023-03-23T11:26:13;8.90;;;1.30;;
37477;SDS011;23334;54.316;10.182;2023-03-23T11:28:59;5.13;;;1.40;;
37477;SDS011;23334;54.316;10.182;2023-03-23T11:31:35;11.77;;;2.17;;
37477;SDS011;23334;54.316;10.182;2023-03-23T11:34:08;5.17;;;1.70;;
37477;SDS011;23334;54.316;10.182;2023-03-23T11:36:41;7.33;;;1.70;;
37477;SDS011;23334;54.316;10.182;2023-03-23T11:39:20;4.23;;;1.50;;
37477;SDS011;23334;54.316;10.182;2023-03-23T11:41:51;11.00;;;1.53;;
37477;SDS011;23334;54.316;10.182;2023-03-23T11:44:17;5.80;;;1.90;;
37477;SDS011;23334;54.316;10.182;2023-03-23T11:46:52;3.43;;;1.67;;
37477;SDS011;23334;54.316;10.182;2023-03-23T11:49:27;7.47;;;1.77;;
37477;SDS011;23334;54.316;10.182;2023-03-23T11:52:26;6.30;;;2.10;;
37477;SDS011;23334;54.316;10.182;2023-03-23T11:58:00;4.47;;;1.60;;
37477;SDS011;23334;54.316;10.182;2023-03-23T12:00:35;6.23;;;1.50;;
37477;SDS011;23334;54.316;10.182;2023-03-23T12:06:02;7.87;;;1.70;;
37477;SDS011;23334;54.316;10.182;2023-03-23T12:14:08;12.77;;;2.27;;
37477;SDS011;23334;54.316;10.182;2023-03-23T12:16:48;12.60;;;2.07;;
37477;SDS011;23334;54.316;10.182;2023-03-23T12:25:08;16.20;;;3.70;;
37477;SDS011;23334;54.316;10.182;2023-03-23T12:33:38;11.90;;;3.10;;
37477;SDS011;23334;54.316;10.182;2023-03-23T12:36:29;10.37;;;2.60;;
37477;SDS011;23334;54.316;10.182;2023-03-23T12:48:07;14.07;;;2.33;;
37477;SDS011;23334;54.316;10.182;2023-03-23T12:50:41;14.90;;;2.63;;
37477;SDS011;23334;54.316;10.182;2023-03-23T12:53:17;13.30;;;2.70;;
37477;SDS011;23334;54.316;10.182;2023-03-23T12:55:47;15.63;;;2.90;;
37477;SDS011;23334;54.316;10.182;2023-03-23T12:58:34;9.60;;;2.70;;
37477;SDS011;23334;54.316;10.182;2023-03-23T13:01:18;9.60;;;3.03;;
37477;SDS011;23334;54.316;10.182;2023-03-23T13:03:50;14.47;;;2.90;;
37477;SDS011;23334;54.316;10.182;2023-03-23T13:08:59;8.00;;;2.37;;
37477;SDS011;23334;54.316;10.182;2023-03-23T13:11:40;7.50;;;2.47;;
37477;SDS011;23334;54.316;10.182;2023-03-23T13:23:05;11.80;;;2.70;;
37477;SDS011;23334;54.316;10.182;2023-03-23T13:28:28;14.27;;;2.67;;
37477;SDS011;23334;54.316;10.182;2023-03-23T13:33:30;8.97;;;2.00;;
37477;SDS011;23334;54.316;10.182;2023-03-23T13:36:09;15.63;;;2.20;;
37477;SDS011;23334;54.316;10.182;2023-03-23T13:38:37;23.40;;;3.57;;
37477;SDS011;23334;54.316;10.182;2023-03-23T13:41:11;16.10;;;2.77;;
37477;SDS011;23334;54.316;10.182;2023-03-23T13:43:39;11.10;;;2.60;;
37477;SDS011;23334;54.316;10.182;2023-03-23T13:46:28;10.83;;;2.40;;
37477;SDS011;23334;54.316;10.182;2023-03-23T13:57:00;14.87;;;2.70;;
37477;SDS011;23334;54.316;10.182;2023-03-23T13:59:46;18.97;;;2.60;;
37477;SDS011;23334;54.316;10.182;2023-03-23T14:05:09;9.20;;;2.87;;
37477;SDS011;23334;54.316;10.182;2023-03-23T14:07:56;16.30;;;3.53;;
37477;SDS011;23334;54.316;10.182;2023-03-23T14:11:00;17.30;;;2.87;;
37477;SDS011;23334;54.316;10.182;2023-03-23T14:13:45;18.60;;;4.70;;
37477;SDS011;23334;54.316;10.182;2023-03-23T14:16:41;16.93;;;2.97;;
37477;SDS011;23334;54.316;10.182;2023-03-23T14:19:15;9.40;;;2.53;;
37477;SDS011;23334;54.316;10.182;2023-03-23T14:21:52;13.77;;;3.00;;
37477;SDS011;23334;54.316;10.182;2023-03-23T14:26:52;13.80;;;3.60;;
37477;SDS011;23334;54.316;10.182;2023-03-23T14:29:26;15.70;;;2.60;;
37477;SDS011;23334;54.316;10.182;2023-03-23T14:31:53;9.77;;;2.70;;
37477;SDS011;23334;54.316;10.182;2023-03-23T14:34:21;13.70;;;2.80;;
37477;SDS011;23334;54.316;10.182;2023-03-23T14:36:50;12.60;;;3.10;;
37477;SDS011;23334;54.316;10.182;2023-03-23T14:42:02;7.00;;;2.50;;
37477;SDS011;23334;54.316;10.182;2023-03-23T14:44:32;15.07;;;4.03;;
37477;SDS011;23334;54.316;10.182;2023-03-23T14:47:04;8.97;;;2.30;;
37477;SDS011;23334;54.316;10.182;2023-03-23T14:49:33;15.10;;;3.80;;
37477;SDS011;23334;54.316;10.182;2023-03-23T14:52:10;16.03;;;3.10;;
37477;SDS011;23334;54.316;10.182;2023-03-23T14:54:37;11.53;;;2.80;;
37477;SDS011;23334;54.316;10.182;2023-03-23T14:57:20;18.03;;;3.23;;
37477;SDS011;23334;54.316;10.182;2023-03-23T14:59:51;12.97;;;2.40;;
37477;SDS011;23334;54.316;10.182;2023-03-23T15:04:54;17.63;;;3.13;;
37477;SDS011;23334;54.316;10.182;2023-03-23T15:07:31;15.40;;;3.93;;
37477;SDS011;23334;54.316;10.182;2023-03-23T15:09:59;15.63;;;3.40;;
37477;SDS011;23334;54.316;10.182;2023-03-23T15:12:27;11.50;;;3.40;;
37477;SDS011;23334;54.316;10.182;2023-03-23T15:14:56;14.33;;;3.10;;
37477;SDS011;23334;54.316;10.182;2023-03-23T15:17:25;16.17;;;3.60;;
37477;SDS011;23334;54.316;10.182;2023-03-23T15:19:54;11.57;;;3.00;;
37477;SDS011;23334;54.316;10.182;2023-03-23T15:27:41;14.63;;;2.97;;
37477;SDS011;23334;54.316;10.182;2023-03-23T15:30:13;16.77;;;3.00;;
37477;SDS011;23334;54.316;10.182;2023-03-23T15:32:40;14.27;;;3.50;;
37477;SDS011;23334;54.316;10.182;2023-03-23T15:35:19;10.20;;;2.90;;
37477;SDS011;23334;54.316;10.182;2023-03-23T15:37:49;14.23;;;3.40;;
37477;SDS011;23334;54.316;10.182;2023-03-23T15:40:19;9.30;;;3.03;;
37477;SDS011;23334;54.316;10.182;2023-03-23T15:42:47;20.47;;;3.10;;
37477;SDS011;23334;54.316;10.182;2023-03-23T15:50:09;15.97;;;3.37;;
37477;SDS011;23334;54.316;10.182;2023-03-23T15:52:36;7.77;;;3.40;;
37477;SDS011;23334;54.316;10.182;2023-03-23T15:55:02;10.07;;;2.70;;
37477;SDS011;23334;54.316;10.182;2023-03-23T15:57:27;8.07;;;2.30;;
37477;SDS011;23334;54.316;10.182;2023-03-23T15:59:53;9.03;;;2.27;;
37477;SDS011;23334;54.316;10.182;2023-03-23T16:02:22;14.77;;;3.50;;
37477;SDS011;23334;54.316;10.182;2023-03-23T16:04:49;14.07;;;2.73;;
37477;SDS011;23334;54.316;10.182;2023-03-23T16:07:15;19.40;;;2.47;;
37477;SDS011;23334;54.316;10.182;2023-03-23T16:09:43;8.70;;;2.10;;
37477;SDS011;23334;54.316;10.182;2023-03-23T16:12:12;25.47;;;3.17;;
37477;SDS011;23334;54.316;10.182;2023-03-23T16:14:38;15.83;;;3.23;;
37477;SDS011;23334;54.316;10.182;2023-03-23T16:17:04;11.40;;;2.60;;
37477;SDS011;23334;54.316;10.182;2023-03-23T16:19:30;12.40;;;3.30;;
37477;SDS011;23334;54.316;10.182;2023-03-23T16:21:55;25.53;;;2.97;;
37477;SDS011;23334;54.316;10.182;2023-03-23T16:24:21;6.37;;;2.10;;
37477;SDS011;23334;54.316;10.182;2023-03-23T16:26:47;9.10;;;2.30;;
37477;SDS011;23334;54.316;10.182;2023-03-23T16:29:13;13.07;;;3.10;;
37477;SDS011;23334;54.316;10.182;2023-03-23T16:31:40;11.93;;;2.80;;
37477;SDS011;23334;54.316;10.182;2023-03-23T16:34:06;11.80;;;2.90;;
37477;SDS011;23334;54.316;10.182;2023-03-23T16:36:33;11.00;;;2.93;;